createdAt,value
2018-06-10T00:05:01.303Z,95.76
2018-06-10T00:07:31.785Z,95.09
2018-06-10T00:10:01.761Z,96.03
2018-06-10T00:12:32.208Z,95.80
2018-06-10T00:15:01.724Z,95.28
2018-06-10T00:17:32.591Z,95.12
2018-06-10T00:20:02.224Z,94.48
2018-06-10T00:22:31.996Z,94.33
2018-06-10T00:28:00.199Z,95.75
2018-06-10T00:30:30.348Z,96.00
2018-06-10T00:33:00.257Z,95.55
2018-06-10T00:36:08.944Z,96.18
2018-06-10T00:38:38.487Z,90.90
2018-06-10T00:41:09.449Z,90.92
2018-06-10T00:43:38.504Z,92.70
2018-06-10T00:46:07.929Z,94.10
2018-06-10T00:48:37.036Z,95.91
2018-06-10T00:51:06.582Z,95.39
2018-06-10T00:53:36.280Z,93.98
2018-06-10T00:57:08.899Z,93.08
2018-06-10T00:59:38.558Z,94.84
2018-06-10T01:02:28.312Z,96.36
2018-06-10T01:05:00.661Z,95.90
2018-06-10T01:07:31.133Z,97.87
2018-06-10T01:10:02.337Z,97.18
2018-06-10T01:12:32.441Z,96.28
2018-06-10T01:15:02.036Z,96.37
2018-06-10T01:17:32.338Z,95.91
2018-06-10T01:20:02.447Z,96.78
2018-06-10T01:22:33.044Z,96.31
2018-06-10T01:25:04.384Z,96.45
2018-06-10T01:27:33.914Z,95.45
2018-06-10T01:30:04.175Z,95.34
2018-06-10T01:32:33.895Z,95.95
2018-06-10T01:35:03.015Z,96.63
2018-06-10T01:37:32.936Z,96.21
2018-06-10T01:40:04.017Z,96.93
2018-06-10T01:42:33.596Z,94.98
2018-06-10T01:45:03.432Z,93.85
2018-06-10T01:47:33.348Z,92.11
2018-06-10T01:50:03.238Z,92.41
2018-06-10T01:52:33.095Z,92.64
2018-06-10T01:55:05.097Z,92.39
2018-06-10T01:57:36.362Z,90.29
2018-06-10T02:00:06.286Z,93.31
2018-06-10T02:02:38.139Z,94.43
2018-06-10T02:05:08.049Z,94.62
2018-06-10T02:10:27.831Z,95.36
2018-06-10T02:15:57.891Z,96.66
2018-06-10T02:18:30.232Z,96.09
2018-06-10T02:21:01.378Z,95.84
2018-06-10T02:23:31.519Z,95.64
2018-06-10T02:26:02.228Z,96.23
2018-06-10T02:28:56.737Z,96.42
2018-06-10T02:31:30.243Z,95.81
2018-06-10T02:34:09.533Z,95.24
2018-06-10T02:36:38.813Z,95.75
2018-06-10T02:39:08.649Z,96.13
2018-06-10T02:41:38.131Z,95.42
2018-06-10T02:44:29.643Z,97.64
2018-06-10T02:47:00.063Z,97.93
2018-06-10T02:49:30.809Z,98.37
2018-06-10T02:52:02.912Z,98.51
2018-06-10T02:59:33.444Z,99.25
2018-06-10T03:02:03.271Z,97.04
2018-06-10T03:04:32.776Z,97.02
2018-06-10T03:07:02.309Z,97.08
2018-06-10T03:12:29.430Z,96.67
2018-06-10T03:15:07.428Z,96.57
2018-06-10T03:17:39.699Z,95.54
2018-06-10T03:20:28.740Z,94.83
2018-06-10T03:22:59.581Z,95.65
2018-06-10T03:25:34.260Z,96.63
2018-06-10T03:28:24.151Z,95.99
2018-06-10T03:30:58.012Z,95.12
2018-06-10T03:33:28.390Z,96.26
2018-06-10T03:36:00.158Z,95.93
2018-06-10T03:41:24.974Z,96.06
2018-06-10T03:44:02.971Z,96.15
2018-06-10T03:46:33.094Z,96.97
2018-06-10T03:49:02.807Z,99.18
2018-06-10T03:51:32.664Z,97.86
2018-06-10T03:54:02.165Z,97.56
2018-06-10T03:56:32.684Z,97.35
2018-06-10T03:59:02.905Z,95.58
2018-06-10T04:01:37.527Z,97.63
2018-06-10T04:04:07.003Z,97.63
2018-06-10T04:06:36.229Z,96.72
2018-06-10T04:11:58.933Z,98.06
2018-06-10T04:14:28.940Z,97.70
2018-06-10T04:16:58.916Z,97.00
2018-06-10T04:19:29.215Z,96.01
2018-06-10T04:21:59.406Z,96.79
2018-06-10T04:24:29.574Z,96.30
2018-06-10T04:27:00.156Z,96.19
2018-06-10T04:29:30.333Z,96.52
2018-06-10T04:32:01.416Z,95.79
2018-06-10T04:34:31.940Z,94.80
2018-06-10T04:37:02.444Z,94.16
2018-06-10T04:39:32.593Z,95.17
2018-06-10T04:42:02.560Z,96.26
2018-06-10T04:44:32.938Z,95.26
2018-06-10T04:47:03.509Z,92.50
2018-06-10T04:49:33.849Z,92.39
2018-06-10T04:52:04.671Z,94.31
2018-06-10T04:54:34.338Z,95.10
2018-06-10T04:57:03.678Z,94.96
2018-06-10T04:59:33.678Z,92.21
2018-06-10T05:02:05.643Z,93.76
2018-06-10T05:04:35.257Z,92.25
2018-06-10T05:07:04.608Z,93.70
2018-06-10T05:09:34.072Z,92.64
2018-06-10T05:12:03.924Z,91.27
2018-06-10T05:14:33.503Z,91.58
2018-06-10T05:17:03.613Z,92.47
2018-06-10T05:19:33.645Z,92.29
2018-06-10T05:22:03.413Z,90.36
2018-06-10T05:24:33.259Z,92.02
2018-06-10T05:27:03.331Z,90.65
2018-06-10T05:29:33.222Z,91.76
2018-06-10T05:32:02.992Z,91.33
2018-06-10T05:34:33.681Z,88.50
2018-06-10T05:37:03.605Z,86.44
2018-06-10T05:39:32.817Z,88.15
2018-06-10T05:42:02.325Z,88.32
2018-06-10T05:44:32.700Z,87.65
2018-06-10T05:47:02.919Z,86.01
2018-06-10T05:49:32.844Z,83.46
2018-06-10T05:52:02.916Z,83.56
2018-06-10T05:57:29.814Z,81.33
2018-06-10T06:02:44.344Z,78.17
2018-06-10T06:05:37.021Z,78.41
2018-06-10T06:08:06.553Z,76.45
2018-06-10T06:10:35.675Z,77.79
2018-06-10T06:13:05.790Z,77.18
2018-06-10T06:15:35.242Z,77.36
2018-06-10T06:18:04.616Z,76.08
2018-06-10T06:20:33.900Z,77.04
2018-06-10T06:23:03.812Z,76.66
2018-06-10T06:25:33.493Z,76.26
2018-06-10T06:28:05.092Z,74.80
2018-06-10T06:30:37.762Z,78.27
2018-06-10T06:33:07.265Z,75.96
2018-06-10T06:36:00.584Z,75.53
2018-06-10T06:38:31.245Z,71.78
2018-06-10T06:41:01.426Z,72.54
2018-06-10T06:43:33.816Z,73.05
2018-06-10T06:46:04.915Z,69.67
2018-06-10T06:48:34.504Z,74.13
2018-06-10T06:51:33.822Z,72.78
2018-06-10T06:54:05.084Z,74.67
2018-06-10T06:56:34.438Z,73.94
2018-06-10T06:59:06.023Z,72.18
2018-06-10T07:01:36.407Z,70.99
2018-06-10T07:04:06.197Z,74.71
2018-06-10T07:09:38.360Z,68.86
2018-06-10T07:12:08.408Z,72.96
2018-06-10T07:17:41.459Z,69.23
2018-06-10T07:20:27.797Z,69.81
2018-06-10T07:23:08.531Z,71.42
2018-06-10T07:26:10.437Z,69.91
2018-06-10T07:28:39.596Z,69.97
2018-06-10T07:31:09.721Z,70.62
2018-06-10T07:33:38.843Z,67.77
2018-06-10T07:36:08.016Z,68.08
2018-06-10T07:38:36.941Z,67.32
2018-06-10T07:41:06.713Z,67.41
2018-06-10T07:43:36.124Z,68.89
2018-06-10T07:46:05.735Z,68.42
2018-06-10T07:48:37.472Z,67.78
2018-06-10T07:51:16.705Z,71.37
2018-06-10T07:53:45.479Z,68.55
2018-06-10T07:56:14.251Z,66.19
2018-06-10T07:58:46.368Z,65.13
2018-06-10T08:01:30.093Z,65.07
2018-06-10T08:04:01.018Z,68.20
2018-06-10T08:06:32.005Z,65.27
2018-06-10T08:09:01.665Z,65.53
2018-06-10T08:17:18.602Z,66.34
2018-06-10T08:19:47.268Z,65.21
2018-06-10T08:22:15.667Z,64.64
2018-06-10T08:24:44.105Z,63.83
2018-06-10T08:27:12.545Z,61.51
2018-06-10T08:29:40.943Z,62.72
2018-06-10T08:32:09.407Z,63.07
2018-06-10T08:34:37.806Z,63.25
2018-06-10T08:37:06.250Z,64.91
2018-06-10T08:39:34.711Z,62.10
2018-06-10T08:42:03.160Z,63.56
2018-06-10T08:44:31.759Z,62.83
2018-06-10T08:47:00.231Z,64.53
2018-06-10T08:49:28.647Z,62.38
2018-06-10T08:51:57.106Z,63.16
2018-06-10T08:54:25.529Z,61.60
2018-06-10T08:56:54.214Z,61.38
2018-06-10T08:59:22.593Z,60.98
2018-06-10T09:01:51.031Z,61.30
2018-06-10T09:04:19.459Z,59.04
2018-06-10T09:06:47.881Z,58.62
2018-06-10T09:09:16.692Z,57.68
2018-06-10T09:11:45.133Z,58.51
2018-06-10T09:14:13.593Z,59.19
2018-06-10T09:16:42.019Z,58.36
2018-06-10T09:19:10.429Z,59.48
2018-06-10T09:21:39.203Z,56.88
2018-06-10T09:24:07.635Z,57.45
2018-06-10T09:26:36.060Z,57.83
2018-06-10T09:29:04.548Z,55.03
2018-06-10T09:31:32.954Z,54.21
2018-06-10T09:34:01.801Z,54.72
2018-06-10T09:36:30.287Z,55.11
2018-06-10T09:38:58.701Z,56.93
2018-06-10T09:41:27.136Z,57.39
2018-06-10T09:43:55.543Z,58.96
2018-06-10T09:46:24.131Z,57.84
2018-06-10T09:48:52.583Z,54.56
2018-06-10T09:51:20.991Z,54.42
2018-06-10T09:53:49.435Z,54.22
2018-06-10T09:56:17.862Z,56.41
2018-06-10T09:58:46.438Z,55.45
2018-06-10T10:01:14.867Z,54.88
2018-06-10T10:03:43.307Z,55.57
2018-06-10T10:06:11.739Z,53.34
2018-06-10T10:08:40.143Z,53.01
2018-06-10T10:11:08.657Z,51.75
2018-06-10T10:13:37.088Z,53.92
2018-06-10T10:16:05.547Z,51.73
2018-06-10T10:18:34.008Z,54.05
2018-06-10T10:21:02.439Z,53.11
2018-06-10T10:23:30.867Z,53.43
2018-06-10T10:25:59.311Z,52.80
2018-06-10T10:28:27.723Z,50.51
2018-06-10T10:30:56.161Z,52.65
2018-06-10T10:33:24.586Z,52.35
2018-06-10T10:35:53.029Z,50.25
2018-06-10T10:38:21.448Z,49.76
2018-06-10T10:40:49.864Z,50.97
2018-06-10T10:43:18.347Z,49.79
2018-06-10T10:45:46.815Z,50.00
2018-06-10T10:48:15.399Z,48.11
2018-06-10T10:50:43.820Z,47.86
2018-06-10T10:53:12.227Z,48.64
2018-06-10T10:55:40.711Z,48.41
2018-06-10T10:58:09.159Z,47.06
2018-06-10T11:00:37.610Z,49.42
2018-06-10T11:03:06.071Z,49.00
2018-06-10T11:05:34.459Z,49.55
2018-06-10T11:08:02.891Z,47.18
2018-06-10T11:10:31.303Z,46.80
2018-06-10T11:12:59.897Z,47.15
2018-06-10T11:15:28.400Z,47.68
2018-06-10T11:17:56.819Z,48.16
2018-06-10T11:20:25.326Z,46.45
2018-06-10T11:22:53.694Z,46.73
2018-06-10T11:25:22.200Z,47.67
2018-06-10T11:27:50.629Z,45.63
2018-06-10T11:30:19.037Z,46.71
2018-06-10T11:32:47.471Z,47.02
2018-06-10T11:35:15.867Z,48.84
2018-06-10T11:37:44.483Z,46.99
2018-06-10T11:40:12.945Z,47.00
2018-06-10T11:42:41.359Z,47.69
2018-06-10T11:45:09.847Z,46.10
2018-06-10T11:47:38.270Z,46.86
2018-06-10T11:50:06.715Z,47.97
2018-06-10T11:52:35.132Z,49.10
2018-06-10T11:55:03.567Z,48.78
2018-06-10T11:57:32.013Z,50.02
2018-06-10T12:00:00.403Z,49.85
2018-06-10T12:02:28.924Z,48.79
2018-06-10T12:04:57.335Z,49.93
2018-06-10T12:07:25.776Z,48.69
2018-06-10T12:09:54.211Z,48.46
2018-06-10T12:12:22.743Z,48.36
2018-06-10T12:14:51.205Z,48.61
2018-06-10T12:17:19.670Z,50.13
2018-06-10T12:19:48.116Z,49.51
2018-06-10T12:22:16.579Z,48.94
2018-06-10T12:24:44.961Z,49.64
2018-06-10T12:27:13.632Z,48.20
2018-06-10T12:29:42.080Z,51.61
2018-06-10T12:32:10.512Z,51.61
2018-06-10T12:34:38.959Z,51.03
2018-06-10T12:37:07.377Z,50.30
2018-06-10T12:39:35.811Z,51.43
2018-06-10T12:42:04.240Z,51.39
2018-06-10T12:44:32.680Z,50.75
2018-06-10T12:47:01.103Z,52.02
2018-06-10T12:49:29.546Z,55.20
2018-06-10T12:51:57.968Z,53.56
2018-06-10T12:54:26.432Z,52.32
2018-06-10T12:56:54.912Z,49.43
2018-06-10T12:59:23.304Z,49.59
2018-06-10T13:01:52.000Z,49.86
2018-06-10T13:04:20.511Z,48.59
2018-06-10T13:06:48.888Z,48.64
2018-06-10T13:09:17.348Z,49.85
2018-06-10T13:11:45.755Z,47.67
2018-06-10T13:14:14.155Z,46.93
2018-06-10T13:16:42.594Z,45.86
2018-06-10T13:19:11.019Z,46.69
2018-06-10T13:21:39.591Z,45.50
2018-06-10T13:24:07.983Z,46.15
2018-06-10T13:26:36.375Z,44.82
2018-06-10T13:29:04.827Z,46.68
2018-06-10T13:31:33.239Z,43.82
2018-06-10T13:34:01.748Z,45.54
2018-06-10T13:36:30.222Z,45.47
2018-06-10T13:38:58.639Z,46.64
2018-06-10T13:41:27.103Z,48.45
2018-06-10T13:43:56.015Z,47.00
2018-06-10T13:46:24.588Z,48.18
2018-06-10T13:48:53.060Z,48.43
2018-06-10T13:51:21.459Z,48.00
2018-06-10T13:53:49.921Z,48.51
2018-06-10T13:56:18.319Z,48.22
2018-06-10T13:58:46.823Z,51.16
2018-06-10T14:01:15.247Z,51.12
2018-06-10T14:03:43.712Z,50.67
2018-06-10T14:06:12.167Z,51.17
2018-06-10T14:08:40.604Z,54.68
2018-06-10T14:11:09.116Z,59.40
2018-06-10T14:13:37.563Z,64.27
2018-06-10T14:16:06.035Z,64.94
2018-06-10T14:18:34.475Z,68.30
2018-06-10T14:21:02.929Z,71.73
2018-06-10T14:23:31.795Z,75.00
2018-06-10T14:26:00.259Z,77.73
2018-06-10T14:28:28.680Z,83.23
2018-06-10T14:30:57.152Z,76.81
2018-06-10T14:33:25.559Z,74.47
2018-06-10T14:35:54.384Z,80.14
2018-06-10T14:38:23.096Z,79.54
2018-06-10T14:40:51.531Z,79.79
2018-06-10T14:43:19.971Z,76.32
2018-06-10T14:45:48.427Z,78.30
2018-06-10T14:48:16.990Z,77.94
2018-06-10T14:50:45.410Z,75.47
2018-06-10T14:53:13.835Z,80.07
2018-06-10T14:55:42.343Z,82.70
2018-06-10T14:58:10.845Z,84.50
2018-06-10T15:00:39.309Z,80.85
2018-06-10T15:03:07.739Z,78.23
2018-06-10T15:05:36.206Z,80.14
2018-06-10T15:08:04.651Z,80.12
2018-06-10T15:10:33.119Z,78.06
2018-06-10T15:13:01.875Z,78.34
2018-06-10T15:15:30.299Z,83.35
2018-06-10T15:17:58.751Z,86.51
2018-06-10T15:20:27.320Z,79.56
2018-06-10T15:22:55.862Z,78.97
2018-06-10T15:25:24.940Z,77.83
2018-06-10T15:27:53.912Z,77.46
2018-06-10T15:30:24.732Z,74.44
2018-06-10T15:32:54.250Z,79.14
2018-06-10T15:35:24.723Z,76.93
2018-06-10T15:37:53.194Z,79.53
2018-06-10T15:40:21.634Z,73.90
2018-06-10T15:42:50.058Z,73.99
2018-06-10T15:45:18.503Z,74.10
2018-06-10T15:47:47.443Z,72.32
2018-06-10T15:50:16.246Z,72.71
2018-06-10T15:52:45.136Z,72.69
2018-06-10T15:55:13.551Z,72.61
2018-06-10T15:57:41.983Z,70.93
2018-06-10T16:00:10.516Z,70.94
2018-06-10T16:02:39.091Z,70.82
2018-06-10T16:05:07.511Z,73.43
2018-06-10T16:07:35.918Z,74.09
2018-06-10T16:10:04.525Z,73.08
2018-06-10T16:12:32.947Z,74.04
2018-06-10T16:15:01.660Z,73.96
2018-06-10T16:17:30.164Z,73.90
2018-06-10T16:19:58.876Z,77.06
2018-06-10T16:22:27.632Z,76.44
2018-06-10T16:24:56.134Z,75.89
2018-06-10T16:27:25.928Z,77.42
2018-06-10T16:29:54.360Z,78.09
2018-06-10T16:32:22.767Z,78.78
2018-06-10T16:34:51.211Z,78.88
2018-06-10T16:37:19.612Z,81.81
2018-06-10T16:39:48.279Z,85.51
2018-06-10T16:42:16.735Z,87.33
2018-06-10T16:44:46.162Z,86.09
2018-06-10T16:47:14.784Z,86.36
2018-06-10T16:49:43.410Z,86.38
2018-06-10T16:52:12.276Z,87.44
2018-06-10T16:54:40.767Z,86.21
2018-06-10T16:57:09.432Z,86.53
2018-06-10T16:59:37.943Z,87.24
2018-06-10T17:02:06.387Z,87.01
2018-06-10T17:04:34.848Z,86.15
2018-06-10T17:07:03.314Z,86.55
2018-06-10T17:09:31.731Z,86.78
2018-06-10T17:12:00.200Z,86.24
2018-06-10T17:14:28.609Z,86.52
2018-06-10T17:16:57.188Z,84.70
2018-06-10T17:19:25.840Z,87.12
2018-06-10T17:21:54.319Z,87.81
2018-06-10T17:24:22.888Z,87.71
2018-06-10T17:26:51.299Z,86.41
2018-06-10T17:29:20.005Z,85.97
2018-06-10T17:31:48.433Z,87.33
2018-06-10T17:34:16.867Z,86.68
2018-06-10T17:36:45.295Z,87.80
2018-06-10T17:39:13.727Z,88.70
2018-06-10T17:41:42.346Z,89.58
2018-06-10T17:44:10.763Z,90.25
2018-06-10T17:46:39.197Z,87.64
2018-06-10T17:49:07.667Z,86.87
2018-06-10T17:51:36.110Z,81.66
2018-06-10T17:54:04.611Z,80.08
2018-06-10T17:56:33.027Z,80.08
2018-06-10T17:59:01.453Z,76.46
2018-06-10T18:01:29.911Z,75.87
2018-06-10T18:03:58.341Z,71.51
2018-06-10T18:06:26.931Z,70.29
2018-06-10T18:08:55.294Z,69.87
2018-06-10T18:11:23.719Z,70.09
2018-06-10T18:13:52.159Z,70.69
2018-06-10T18:16:20.599Z,71.98
2018-06-10T18:18:49.243Z,71.08
2018-06-10T18:21:17.692Z,70.93
2018-06-10T18:23:46.123Z,72.22
2018-06-10T18:26:14.597Z,72.07
2018-06-10T18:28:43.008Z,71.08
2018-06-10T18:31:11.802Z,73.27
2018-06-10T18:33:40.261Z,71.36
2018-06-10T18:36:08.746Z,73.14
2018-06-10T18:38:37.628Z,74.19
2018-06-10T18:41:06.104Z,75.17
2018-06-10T18:43:35.167Z,76.58
2018-06-10T18:46:04.111Z,78.31
2018-06-10T18:48:32.600Z,76.61
2018-06-10T18:51:01.063Z,72.62
2018-06-10T18:53:29.523Z,72.11
2018-06-10T18:55:58.141Z,75.50
2018-06-10T18:58:26.641Z,76.14
2018-06-10T19:00:55.119Z,75.74
2018-06-10T19:03:23.629Z,73.92
2018-06-10T19:05:52.325Z,73.68
2018-06-10T19:08:20.954Z,72.82
2018-06-10T19:10:49.552Z,74.02
2018-06-10T19:13:18.014Z,73.22
2018-06-10T19:15:46.506Z,73.10
2018-06-10T19:18:14.956Z,74.38
2018-06-10T19:20:43.640Z,74.82
2018-06-10T19:23:12.102Z,74.84
2018-06-10T19:25:40.557Z,74.14
2018-06-10T19:28:09.058Z,75.63
2018-06-10T19:30:37.483Z,75.24
2018-06-10T19:33:06.164Z,77.10
2018-06-10T19:35:34.665Z,76.03
2018-06-10T19:38:03.262Z,77.12
2018-06-10T19:40:31.769Z,78.17
2018-06-10T19:43:00.235Z,78.58
2018-06-10T19:45:28.726Z,77.98
2018-06-10T19:47:57.200Z,78.32
2018-06-10T19:50:25.669Z,78.87
2018-06-10T19:52:54.135Z,80.13
2018-06-10T19:55:22.579Z,81.37
2018-06-10T19:57:51.183Z,79.04
2018-06-10T20:00:19.596Z,79.78
2018-06-10T20:02:48.030Z,79.09
2018-06-10T20:05:16.522Z,80.56
2018-06-10T20:07:44.978Z,81.08
2018-06-10T20:10:13.595Z,80.94
2018-06-10T20:12:42.067Z,83.51
2018-06-10T20:15:10.484Z,83.16
2018-06-10T20:17:38.924Z,85.48
2018-06-10T20:20:07.713Z,85.11
2018-06-10T20:22:36.360Z,85.39
2018-06-10T20:25:04.830Z,83.65
2018-06-10T20:27:33.311Z,84.69
2018-06-10T20:30:02.739Z,86.11
2018-06-10T20:32:31.127Z,84.90
2018-06-10T20:34:59.607Z,85.07
2018-06-10T20:37:28.075Z,84.08
2018-06-10T20:39:56.512Z,85.16
2018-06-10T20:42:24.970Z,86.62
2018-06-10T20:44:53.389Z,85.12
2018-06-10T20:47:21.915Z,85.59
2018-06-10T20:49:50.355Z,85.56
2018-06-10T20:52:18.779Z,84.66
2018-06-10T20:54:47.225Z,83.66
2018-06-10T20:57:15.639Z,83.77
2018-06-10T20:59:44.300Z,82.62
2018-06-10T21:02:12.748Z,82.38
2018-06-10T21:04:41.205Z,84.01
2018-06-10T21:07:09.671Z,82.48
2018-06-10T21:09:38.075Z,82.79
2018-06-10T21:12:06.618Z,83.33
2018-06-10T21:14:35.043Z,82.95
2018-06-10T21:17:03.471Z,84.50
2018-06-10T21:19:31.932Z,85.91
2018-06-10T21:22:00.359Z,85.55
2018-06-10T21:24:28.936Z,86.39
2018-06-10T21:26:57.367Z,87.69
2018-06-10T21:29:25.809Z,88.91
2018-06-10T21:31:54.295Z,89.45
2018-06-10T21:34:22.727Z,90.83
2018-06-10T21:36:51.603Z,88.13
2018-06-10T21:39:20.020Z,87.71
2018-06-10T21:41:48.449Z,87.25
2018-06-10T21:44:16.908Z,86.45
2018-06-10T21:46:45.323Z,87.98
2018-06-10T21:49:13.876Z,89.83
2018-06-10T21:51:42.311Z,87.76
2018-06-10T21:54:10.787Z,88.01
2018-06-10T21:56:39.211Z,87.62
2018-06-10T21:59:07.625Z,87.81
2018-06-10T22:01:36.460Z,88.36
2018-06-10T22:04:04.955Z,87.95
2018-06-10T22:06:33.375Z,87.59
2018-06-10T22:09:01.820Z,87.78
2018-06-10T22:11:30.247Z,88.47
2018-06-10T22:13:58.796Z,89.22
2018-06-10T22:16:27.212Z,88.71
2018-06-10T22:18:55.630Z,87.19
2018-06-10T22:21:24.047Z,88.03
2018-06-10T22:23:52.459Z,89.20
2018-06-10T22:26:21.047Z,87.96
2018-06-10T22:28:49.460Z,88.24
2018-06-10T22:31:17.871Z,88.78
2018-06-10T22:33:46.326Z,88.98
2018-06-10T22:36:21.327Z,90.34
2018-06-10T22:38:49.828Z,90.74
2018-06-10T22:41:18.222Z,90.42
2018-06-10T22:43:46.649Z,90.85
2018-06-10T22:46:15.119Z,90.74
2018-06-10T22:48:43.599Z,89.69
2018-06-10T22:51:12.015Z,90.75
2018-06-10T22:54:16.268Z,90.27
2018-06-10T22:56:44.716Z,90.32
2018-06-10T22:59:13.116Z,89.25
2018-06-10T23:01:41.726Z,90.61
2018-06-10T23:04:10.152Z,90.68
2018-06-10T23:06:38.555Z,90.83
2018-06-10T23:09:07.942Z,90.84
2018-06-10T23:11:36.371Z,91.77
2018-06-10T23:14:04.930Z,91.55
2018-06-10T23:16:33.347Z,91.10
2018-06-10T23:19:01.780Z,90.07
2018-06-10T23:21:30.215Z,89.26
2018-06-10T23:23:58.642Z,90.19
2018-06-10T23:26:27.399Z,89.81
2018-06-10T23:28:55.819Z,89.14
2018-06-10T23:31:24.243Z,88.61
2018-06-10T23:33:52.679Z,88.74
2018-06-10T23:36:21.123Z,87.05
2018-06-10T23:38:49.655Z,88.81
2018-06-10T23:41:18.095Z,89.77
2018-06-10T23:43:46.519Z,90.26
2018-06-10T23:46:14.967Z,90.71
2018-06-10T23:48:43.464Z,90.80
2018-06-10T23:51:12.081Z,91.15
2018-06-10T23:53:40.491Z,91.20
2018-06-10T23:56:08.923Z,90.92
2018-06-10T23:58:37.354Z,90.54
